Map

Track Data

SID SEASON NUMBER BASIN SUBBASIN NAME ISO_TIME NATURE LAT LON WMO_WIND WMO_PRES WMO_AGENCY TRACK_TYPE DIST2LAND LANDFALL IFLAG USA_AGENCY USA_ATCF_ID USA_LAT USA_LON USA_RECORD USA_STATUS USA_WIND USA_PRES USA_SSHS USA_R34_NE USA_R34_SE USA_R34_SW USA_R34_NW USA_R50_NE USA_R50_SE USA_R50_SW USA_R50_NW USA_R64_NE USA_R64_SE USA_R64_SW USA_R64_NW USA_POCI USA_ROCI USA_RMW USA_EYE TOKYO_LAT TOKYO_LON TOKYO_GRADE TOKYO_WIND TOKYO_PRES TOKYO_R50_DIR TOKYO_R50_LONG TOKYO_R50_SHORT TOKYO_R30_DIR TOKYO_R30_LONG TOKYO_R30_SHORT TOKYO_LAND CMA_LAT CMA_LON CMA_CAT CMA_WIND CMA_PRES HKO_LAT HKO_LON HKO_CAT HKO_WIND HKO_PRES NEWDELHI_LAT NEWDELHI_LON NEWDELHI_GRADE NEWDELHI_WIND NEWDELHI_PRES NEWDELHI_CI NEWDELHI_DP NEWDELHI_POCI REUNION_LAT REUNION_LON REUNION_TYPE REUNION_WIND REUNION_PRES REUNION_TNUM REUNION_CI REUNION_RMW REUNION_R34_NE REUNION_R34_SE REUNION_R34_SW REUNION_R34_NW REUNION_R50_NE REUNION_R50_SE REUNION_R50_SW REUNION_R50_NW REUNION_R64_NE REUNION_R64_SE REUNION_R64_SW REUNION_R64_NW BOM_LAT BOM_LON BOM_TYPE BOM_WIND BOM_PRES BOM_TNUM BOM_CI BOM_RMW BOM_R34_NE BOM_R34_SE BOM_R34_SW BOM_R34_NW BOM_R50_NE BOM_R50_SE BOM_R50_SW BOM_R50_NW BOM_R64_NE BOM_R64_SE BOM_R64_SW BOM_R64_NW BOM_ROCI BOM_POCI BOM_EYE BOM_POS_METHOD BOM_PRES_METHOD NADI_LAT NADI_LON NADI_CAT NADI_WIND NADI_PRES WELLINGTON_LAT WELLINGTON_LON WELLINGTON_WIND WELLINGTON_PRES DS824_LAT DS824_LON DS824_STAGE DS824_WIND DS824_PRES TD9636_LAT TD9636_LON TD9636_STAGE TD9636_WIND TD9636_PRES TD9635_LAT TD9635_LON TD9635_WIND TD9635_PRES TD9635_ROCI NEUMANN_LAT NEUMANN_LON NEUMANN_CLASS NEUMANN_WIND NEUMANN_PRES MLC_LAT MLC_LON MLC_CLASS MLC_WIND MLC_PRES USA_GUST BOM_GUST BOM_GUST_PER REUNION_GUST REUNION_GUST_PER USA_SEAHGT USA_SEARAD_NE USA_SEARAD_SE USA_SEARAD_SW USA_SEARAD_NW STORM_SPEED STORM_DIR
1941288N21291 1941 65 NA NA NOT_NAMED 1941-10-15 06:00:00 TS 20.7000 -69.0000 25 hurdat_atl main 159 148 O_____________ hurdat_atl AL061941 20.7000 -69.0000 TD 25 -1 9 291
1941288N21291 1941 65 NA NA NOT_NAMED 1941-10-15 09:00:00 TS 20.8526 -69.4298 main 158 148 P_____________ AL061941 20.8526 -69.4298 TD 25 -1 9 290
1941288N21291 1941 65 NA NA NOT_NAMED 1941-10-15 12:00:00 TS 21.0000 -69.9000 25 hurdat_atl main 152 143 O_____________ hurdat_atl AL061941 21.0000 -69.9000 TD 25 -1 10 287
1941288N21291 1941 65 NA NA NOT_NAMED 1941-10-15 15:00:00 TS 21.1425 -70.4352 main 146 146 P_____________ AL061941 21.1425 -70.4352 TD 25 -1 11 286
1941288N21291 1941 65 NA NA NOT_NAMED 1941-10-15 18:00:00 TS 21.3000 -71.0000 25 hurdat_atl main 167 158 O_____________ hurdat_atl AL061941 21.3000 -71.0000 TD 25 -1 11 288
1941288N21291 1941 65 NA NA NOT_NAMED 1941-10-15 21:00:00 TS 21.4924 -71.5575 main 148 108 P_____________ AL061941 21.4924 -71.5575 TD 25 -1 11 291
1941288N21291 1941 65 NA NA NOT_NAMED 1941-10-16 00:00:00 TS 21.7000 -72.1000 25 hurdat_atl main 108 84 O_____________ hurdat_atl AL061941 21.7000 -72.1000 TD 25 -1 11 293
1941288N21291 1941 65 NA NA NOT_NAMED 1941-10-16 03:00:00 TS 21.8998 -72.6077 main 88 84 P_____________ AL061941 21.8998 -72.6077 TD 25 -1 10 293
1941288N21291 1941 65 NA NA NOT_NAMED 1941-10-16 06:00:00 TS 22.1000 -73.1000 25 hurdat_atl main 100 100 O_____________ hurdat_atl AL061941 22.1000 -73.1000 TD 25 -1 10 294
1941288N21291 1941 65 NA NA NOT_NAMED 1941-10-16 09:00:00 TS 22.3073 -73.5926 main 129 129 P_____________ AL061941 22.3073 -73.5926 TD 25 -1 10 293
1941288N21291 1941 65 NA NA NOT_NAMED 1941-10-16 12:00:00 TS 22.5000 -74.1000 25 hurdat_atl main 161 161 O_____________ hurdat_atl AL061941 22.5000 -74.1000 TD 25 -1 10 290
1941288N21291 1941 65 NA NA NOT_NAMED 1941-10-16 15:00:00 TS 22.6572 -74.6277 main 201 199 P_____________ AL061941 22.6572 -74.6277 TD 25 -1 11 286
1941288N21291 1941 65 NA NA NOT_NAMED 1941-10-16 18:00:00 TS 22.8000 -75.2000 25 hurdat_atl main 205 189 O_____________ hurdat_atl AL061941 22.8000 -75.2000 TD 25 -1 11 285
1941288N21291 1941 65 NA NA NOT_NAMED 1941-10-16 21:00:00 TS 22.9496 -75.8127 main 189 166 P_____________ AL061941 22.9496 -75.8127 TD 25 -1 12 284
1941288N21291 1941 65 NA NA NOT_NAMED 1941-10-17 00:00:00 TS 23.1000 -76.5000 25 hurdat_atl main 168 138 O_____________ hurdat_atl AL061941 23.1000 -76.5000 TD 25 -1 14 283
1941288N21291 1941 65 NA NA NOT_NAMED 1941-10-17 03:00:00 TS 23.2573 -77.2700 main 123 89 P_____________ AL061941 23.2573 -77.2700 TD 25 -1 15 282
1941288N21291 1941 65 NA NA NOT_NAMED 1941-10-17 06:00:00 TS 23.4000 -78.1000 25 hurdat_atl main 89 89 O_____________ hurdat_atl AL061941 23.4000 -78.1000 TD 25 -1 16 279
1941288N21291 1941 65 NA NA NOT_NAMED 1941-10-17 09:00:00 TS 23.5074 -78.9577 main 108 80 P_____________ AL061941 23.5074 -78.9577 TD 25 -1 16 277
1941288N21291 1941 65 NA NA NOT_NAMED 1941-10-17 12:00:00 TS 23.6000 -79.8000 25 hurdat_atl main 80 70 O_____________ hurdat_atl AL061941 23.6000 -79.8000 TD 25 -1 15 277
1941288N21291 1941 65 NA NA NOT_NAMED 1941-10-17 15:00:00 TS 23.6846 -80.5803 main 78 73 P_____________ AL061941 23.6846 -80.5803 TD 25 -1 14 278
1941288N21291 1941 65 NA NA NOT_NAMED 1941-10-17 18:00:00 TS 23.8000 -81.3000 25 hurdat_atl main 78 78 O_____________ hurdat_atl AL061941 23.8000 -81.3000 TD 25 -1 13 283
1941288N21291 1941 65 NA NA NOT_NAMED 1941-10-17 21:00:00 TS 23.9774 -82.0024 main 100 100 P_____________ AL061941 23.9774 -82.0024 TD 25 -1 13 289
1941288N21291 1941 65 NA NA NOT_NAMED 1941-10-18 00:00:00 TS 24.2000 -82.6000 25 hurdat_atl main 123 123 O_____________ hurdat_atl AL061941 24.2000 -82.6000 TD 25 -1 11 296
1941288N21291 1941 65 NA GM NOT_NAMED 1941-10-18 03:00:00 TS 24.4421 -83.0527 main 157 157 P_____________ AL061941 24.4421 -83.0527 TD 25 -1 9 304
1941288N21291 1941 65 NA GM NOT_NAMED 1941-10-18 06:00:00 TS 24.7000 -83.4000 25 hurdat_atl main 199 199 O_____________ hurdat_atl AL061941 24.7000 -83.4000 TD 25 -1 8 309
1941288N21291 1941 65 NA GM NOT_NAMED 1941-10-18 09:00:00 TS 24.9424 -83.7302 main 225 224 P_____________ AL061941 24.9424 -83.7302 TD 27 -1 7 313
1941288N21291 1941 65 NA GM NOT_NAMED 1941-10-18 12:00:00 TS 25.2000 -84.0000 30 hurdat_atl main 242 238 O_____________ hurdat_atl AL061941 25.2000 -84.0000 TD 30 -1 7 320
1941288N21291 1941 65 NA GM NOT_NAMED 1941-10-18 15:00:00 TS 25.4850 -84.2375 main 238 234 P_____________ AL061941 25.4850 -84.2375 TD 30 -1 7 329
1941288N21291 1941 65 NA GM NOT_NAMED 1941-10-18 18:00:00 TS 25.8000 -84.4000 30 hurdat_atl main 237 231 O_____________ hurdat_atl AL061941 25.8000 -84.4000 TD 30 -1 7 341
1941288N21291 1941 65 NA GM NOT_NAMED 1941-10-18 21:00:00 TS 26.1425 -84.4876 main 231 208 P_____________ AL061941 26.1425 -84.4876 TD 32 -1 7 353
1941288N21291 1941 65 NA GM NOT_NAMED 1941-10-19 00:00:00 TS 26.5000 -84.5000 35 hurdat_atl main 208 196 O_____________ hurdat_atl AL061941 26.5000 -84.5000 TS 35 0 7 2
1941288N21291 1941 65 NA GM NOT_NAMED 1941-10-19 03:00:00 TS 26.8650 -84.4651 main 193 167 P_____________ AL061941 26.8650 -84.4651 TS 37 0 7 7
1941288N21291 1941 65 NA GM NOT_NAMED 1941-10-19 06:00:00 TS 27.2000 -84.4000 40 hurdat_atl main 167 154 O_____________ hurdat_atl AL061941 27.2000 -84.4000 TS 40 0 6 10
1941288N21291 1941 65 NA GM NOT_NAMED 1941-10-19 09:00:00 TS 27.4875 -84.3500 main 144 139 P_____________ AL061941 27.4875 -84.3500 TS 42 0 5 10
1941288N21291 1941 65 NA GM NOT_NAMED 1941-10-19 12:00:00 TS 27.7000 -84.3000 45 hurdat_atl main 139 137 O_____________ hurdat_atl AL061941 27.7000 -84.3000 TS 45 0 3 11
1941288N21291 1941 65 NA GM NOT_NAMED 1941-10-19 15:00:00 TS 27.8149 -84.2724 main 137 127 P_____________ AL061941 27.8149 -84.2724 TS 45 0 2 25
1941288N21291 1941 65 NA GM NOT_NAMED 1941-10-19 18:00:00 TS 27.9000 -84.2000 45 hurdat_atl main 127 108 O_____________ hurdat_atl AL061941 27.9000 -84.2000 TS 45 0 3 44
1941288N21291 1941 65 NA GM NOT_NAMED 1941-10-19 21:00:00 TS 28.0350 -84.0300 main 108 94 P_____________ AL061941 28.0350 -84.0300 TS 45 0 5 50
1941288N21291 1941 65 NA GM NOT_NAMED 1941-10-20 00:00:00 TS 28.2000 -83.8000 45 hurdat_atl main 94 81 O_____________ hurdat_atl AL061941 28.2000 -83.8000 TS 45 0 6 50
1941288N21291 1941 65 NA GM NOT_NAMED 1941-10-20 03:00:00 TS 28.3926 -83.5426 main 76 66 P_____________ AL061941 28.3926 -83.5426 TS 42 0 6 48
1941288N21291 1941 65 NA GM NOT_NAMED 1941-10-20 06:00:00 TS 28.6000 -83.3000 40 hurdat_atl main 66 36 O_____________ hurdat_atl AL061941 28.6000 -83.3000 TS 40 0 6 41
1941288N21291 1941 65 NA GM NOT_NAMED 1941-10-20 09:00:00 TS 28.8465 -83.1022 main 36 19 P_____________ AL061941 28.8465 -83.1022 TS 40 0 5 33
1941288N21291 1941 65 NA GM NOT_NAMED 1941-10-20 12:00:00 TS 29.0000 -83.0000 40 1004 hurdat_atl main 19 19 O_____________ hurdat_atl AL061941 29.0000 -83.0000 TS 40 1004 0 2 30
1941288N21291 1941 65 NA GM NOT_NAMED 1941-10-20 14:00:00 TS 29.0000 -83.0000 40 1004 hurdat_atl main 19 11 O_____________ hurdat_atl AL061941 29.0000 -83.0000 L TS 40 1004 0 1 0
1941288N21291 1941 65 NA GM NOT_NAMED 1941-10-20 15:00:00 TS 29.0688 -83.0018 main 11 0 P_____________ AL061941 29.0688 -83.0018 TS 38 0 6 0
1941288N21291 1941 65 NA NA NOT_NAMED 1941-10-20 18:00:00 TS 29.4000 -83.0000 35 hurdat_atl main 0 0 O_____________ hurdat_atl AL061941 29.4000 -83.0000 TS 35 0 4 4
1941288N21291 1941 65 NA NA NOT_NAMED 1941-10-20 21:00:00 TS 29.5098 -82.9591 main 0 0 P_____________ AL061941 29.5098 -82.9591 TS 35 0 1 40
1941288N21291 1941 65 NA NA NOT_NAMED 1941-10-21 00:00:00 TS 29.5000 -82.9000 35 hurdat_atl main 0 0 O_____________ hurdat_atl AL061941 29.5000 -82.9000 TS 35 0 1 108
1941288N21291 1941 65 NA NA NOT_NAMED 1941-10-21 03:00:00 TS 29.4800 -82.8575 main 0 0 P_____________ AL061941 29.4800 -82.8575 TS 35 0 1 140
1941288N21291 1941 65 NA NA NOT_NAMED 1941-10-21 06:00:00 TS 29.4000 -82.8000 35 hurdat_atl main 0 0 O_____________ hurdat_atl AL061941 29.4000 -82.8000 TS 35 0 3 151
1941288N21291 1941 65 NA NA NOT_NAMED 1941-10-21 09:00:00 TS 29.2500 -82.7149 main 0 0 P_____________ AL061941 29.2500 -82.7149 TS 32 -1 3 150
1941288N21291 1941 65 NA NA NOT_NAMED 1941-10-21 12:00:00 TS 29.1000 -82.6000 30 hurdat_atl main 0 0 O_____________ hurdat_atl AL061941 29.1000 -82.6000 TD 30 -1 3 132
1941288N21291 1941 65 NA NA NOT_NAMED 1941-10-21 15:00:00 TS 29.0425 -82.4501 main 0 0 P_____________ AL061941 29.0425 -82.4501 TD 27 -1 3 111
1941288N21291 1941 65 NA NA NOT_NAMED 1941-10-21 18:00:00 TS 29.0000 -82.3000 25 hurdat_atl main 0 0 O_____________ hurdat_atl AL061941 29.0000 -82.3000 TD 25 -1 3 118
1941288N21291 1941 65 NA NA NOT_NAMED 1941-10-21 21:00:00 TS 28.9225 -82.1850 main 0 0 P_____________ AL061941 28.9225 -82.1850 TD 25 -1 3 138
1941288N21291 1941 65 NA NA NOT_NAMED 1941-10-22 00:00:00 TS 28.8000 -82.1000 25 hurdat_atl main 0 0 O_____________ hurdat_atl AL061941 28.8000 -82.1000 TD 25 -1 3 158
1941288N21291 1941 65 NA NA NOT_NAMED 1941-10-22 03:00:00 TS 28.6175 -82.0425 main 0 0 P_____________ AL061941 28.6175 -82.0425 TD 22 -1 4 168
1941288N21291 1941 65 NA NA NOT_NAMED 1941-10-22 06:00:00 TS 28.4000 -82.0000 20 hurdat_atl main 0 O_____________ hurdat_atl AL061941 28.4000 -82.0000 TD 20 -1 4 171

About IBTrACS Database

This database is a web-friendly format of International Best Track Archive for Climate Stewardship (IBTrACS), a global best track data archive curated by NOAA dating back to 1842.

Updated: 2021-10-21